createdAt,value
2022-09-15T00:01:10.004Z,3.20
2022-09-15T00:03:37.660Z,3.83
2022-09-15T00:06:05.056Z,3.20
2022-09-15T00:08:32.449Z,3.10
2022-09-15T00:11:08.742Z,3.15
2022-09-15T00:13:37.473Z,3.35
2022-09-15T00:16:05.699Z,3.47
2022-09-15T00:18:34.102Z,3.40
2022-09-15T00:21:06.181Z,3.63
2022-09-15T00:23:33.300Z,3.78
2022-09-15T00:26:00.402Z,3.60
2022-09-15T00:28:27.581Z,3.60
2022-09-15T00:30:55.780Z,3.60
2022-09-15T00:33:23.664Z,3.72
2022-09-15T00:35:53.456Z,3.40
2022-09-15T00:38:20.807Z,3.85
2022-09-15T00:40:53.049Z,3.33
2022-09-15T00:43:23.173Z,3.70
2022-09-15T00:45:50.765Z,3.50
2022-09-15T00:48:22.131Z,3.60
2022-09-15T00:50:56.086Z,3.17
2022-09-15T00:53:26.063Z,6.03
2022-09-15T00:55:53.479Z,3.50
2022-09-15T00:58:31.643Z,3.78
2022-09-15T01:01:01.142Z,3.90
2022-09-15T01:06:07.429Z,3.45
2022-09-15T01:08:44.004Z,3.55
2022-09-15T01:11:11.229Z,4.00
2022-09-15T01:13:38.161Z,4.13
2022-09-15T01:16:33.075Z,4.22
2022-09-15T01:19:32.413Z,3.60
2022-09-15T01:22:11.128Z,3.65
2022-09-15T01:25:02.684Z,3.80
2022-09-15T01:27:51.044Z,4.38
2022-09-15T01:30:22.938Z,3.40
2022-09-15T01:33:14.333Z,4.47
2022-09-15T01:36:01.603Z,3.78
2022-09-15T01:38:38.200Z,3.75
2022-09-15T01:41:25.534Z,3.70
2022-09-15T01:44:11.114Z,2.97
2022-09-15T01:46:52.485Z,3.95
2022-09-15T01:49:25.247Z,4.53
2022-09-15T01:51:53.967Z,3.65
2022-09-15T01:54:26.850Z,3.43
2022-09-15T01:56:53.999Z,3.90
2022-09-15T01:59:20.963Z,3.92
2022-09-15T02:02:26.702Z,3.75
2022-09-15T02:04:59.891Z,4.70
2022-09-15T02:07:51.690Z,3.50
2022-09-15T02:10:38.319Z,3.83
2022-09-15T02:13:14.775Z,3.28
2022-09-15T02:15:48.161Z,3.80
2022-09-15T02:18:25.849Z,3.35
2022-09-15T02:20:59.961Z,3.95
2022-09-15T02:23:31.559Z,3.50
2022-09-15T02:26:07.011Z,4.10
2022-09-15T02:28:38.288Z,4.10
2022-09-15T02:31:08.885Z,3.55
2022-09-15T02:33:44.389Z,3.45
2022-09-15T02:36:15.871Z,4.03
2022-09-15T02:38:49.372Z,4.15
2022-09-15T02:41:17.357Z,4.20
2022-09-15T02:43:46.309Z,3.42
2022-09-15T02:46:16.031Z,3.92
2022-09-15T02:48:43.052Z,4.15
2022-09-15T02:51:10.499Z,3.40
2022-09-15T02:53:37.531Z,3.97
2022-09-15T02:56:08.181Z,3.90
2022-09-15T02:58:35.405Z,3.80
2022-09-15T03:01:07.610Z,3.83
2022-09-15T03:03:35.297Z,4.25
2022-09-15T03:06:18.519Z,3.72
2022-09-15T03:08:58.892Z,3.90
2022-09-15T03:11:27.731Z,3.85
2022-09-15T03:13:59.904Z,4.00
2022-09-15T03:16:28.091Z,3.50
2022-09-15T03:18:56.876Z,3.75
2022-09-15T03:21:24.033Z,4.28
2022-09-15T03:23:51.660Z,3.65
2022-09-15T03:26:18.731Z,3.65
2022-09-15T03:28:45.683Z,4.45
2022-09-15T03:31:12.879Z,3.55
2022-09-15T03:33:40.405Z,4.20
2022-09-15T03:36:07.810Z,3.35
2022-09-15T03:38:35.007Z,3.60
2022-09-15T03:41:04.948Z,3.50
2022-09-15T03:43:32.482Z,3.47
2022-09-15T03:46:00.026Z,4.07
2022-09-15T03:48:28.589Z,3.65
2022-09-15T03:50:55.684Z,3.67
2022-09-15T03:53:23.444Z,3.70
2022-09-15T03:55:50.777Z,4.13
2022-09-15T03:58:19.129Z,3.42
2022-09-15T04:00:47.068Z,3.65
2022-09-15T04:03:14.803Z,4.50
2022-09-15T04:05:42.318Z,3.78
2022-09-15T04:08:13.265Z,3.65
2022-09-15T04:10:41.382Z,4.03
2022-09-15T04:13:08.839Z,3.63
2022-09-15T04:15:36.154Z,3.30
2022-09-15T04:18:04.244Z,2.90
2022-09-15T04:20:32.232Z,3.60
2022-09-15T04:22:59.324Z,3.53
2022-09-15T04:25:28.023Z,4.20
2022-09-15T04:27:57.082Z,3.77
2022-09-15T04:30:24.657Z,3.65
2022-09-15T04:32:52.567Z,4.03
2022-09-15T04:35:22.082Z,3.78
2022-09-15T04:40:16.404Z,3.60
2022-09-15T04:42:43.399Z,4.20
2022-09-15T04:45:10.590Z,4.38
2022-09-15T04:47:37.628Z,4.55
2022-09-15T04:50:04.954Z,4.38
2022-09-15T04:52:32.273Z,4.60
2022-09-15T04:54:59.241Z,3.83
2022-09-15T04:57:26.211Z,3.90
2022-09-15T04:59:53.180Z,4.63
2022-09-15T05:02:20.276Z,4.63
2022-09-15T05:04:49.033Z,4.28
2022-09-15T05:07:16.185Z,4.73
2022-09-15T05:09:43.270Z,4.70
2022-09-15T05:12:10.284Z,4.35
2022-09-15T05:14:37.263Z,4.78
2022-09-15T05:17:04.241Z,6.80
2022-09-15T05:19:31.194Z,4.28
2022-09-15T05:21:58.150Z,5.00
2022-09-15T05:24:25.177Z,4.78
2022-09-15T05:26:52.134Z,4.68
2022-09-15T05:29:19.718Z,4.28
2022-09-15T05:31:46.798Z,4.38
2022-09-15T05:34:17.372Z,4.57
2022-09-15T05:36:44.381Z,3.63
2022-09-15T05:39:11.332Z,4.38
2022-09-15T05:41:38.346Z,3.42
2022-09-15T05:44:05.394Z,4.53
2022-09-15T05:46:32.377Z,4.25
2022-09-15T05:48:59.490Z,4.05
2022-09-15T05:51:26.831Z,4.40
2022-09-15T05:53:53.720Z,3.95
2022-09-15T05:56:20.888Z,4.57
2022-09-15T05:58:48.957Z,3.97
2022-09-15T06:01:22.138Z,4.43
2022-09-15T06:03:49.377Z,4.10
2022-09-15T06:06:17.143Z,4.25
2022-09-15T06:08:52.792Z,3.95
2022-09-15T06:11:25.324Z,4.60
2022-09-15T06:13:52.419Z,5.00
2022-09-15T06:16:24.212Z,4.10
2022-09-15T06:18:52.884Z,4.40
2022-09-15T06:21:25.752Z,4.65
2022-09-15T06:24:01.245Z,5.78
2022-09-15T06:26:28.588Z,4.88
2022-09-15T06:29:00.826Z,4.32
2022-09-15T06:31:30.016Z,4.68
2022-09-15T06:33:58.515Z,5.47
2022-09-15T06:36:27.967Z,4.70
2022-09-15T06:41:22.669Z,4.35
2022-09-15T06:43:49.800Z,4.90
2022-09-15T06:46:23.140Z,4.40
2022-09-15T06:48:51.448Z,4.80
2022-09-15T06:51:20.698Z,4.95
2022-09-15T06:53:47.768Z,4.30
2022-09-15T06:56:22.936Z,3.70
2022-09-15T06:58:50.401Z,4.00
2022-09-15T07:01:26.048Z,4.10
2022-09-15T07:03:53.359Z,4.43
2022-09-15T07:06:20.438Z,4.47
2022-09-15T07:08:48.225Z,3.85
2022-09-15T07:11:16.024Z,4.05
2022-09-15T07:13:43.383Z,4.10
2022-09-15T07:16:13.010Z,4.40
2022-09-15T07:18:43.347Z,4.35
2022-09-15T07:21:14.164Z,4.32
2022-09-15T07:23:42.151Z,4.18
2022-09-15T07:26:13.354Z,4.60
2022-09-15T07:28:42.539Z,4.30
2022-09-15T07:31:12.529Z,4.57
2022-09-15T07:33:40.963Z,4.38
2022-09-15T07:36:08.944Z,4.80
2022-09-15T07:38:40.779Z,4.55
2022-09-15T07:41:10.431Z,5.03
2022-09-15T07:43:37.680Z,4.28
2022-09-15T07:46:05.623Z,4.57
2022-09-15T07:48:32.812Z,4.47
2022-09-15T07:51:02.627Z,4.63
2022-09-15T07:53:30.224Z,4.93
2022-09-15T07:55:57.727Z,4.82
2022-09-15T07:58:25.374Z,4.95
2022-09-15T08:00:52.584Z,4.60
2022-09-15T08:03:19.669Z,5.13
2022-09-15T08:05:46.629Z,5.03
2022-09-15T08:08:13.761Z,6.05
2022-09-15T08:10:41.551Z,5.05
2022-09-15T08:13:09.126Z,4.97
2022-09-15T08:15:38.046Z,4.55
2022-09-15T08:18:06.182Z,4.80
2022-09-15T08:20:33.562Z,5.10
2022-09-15T08:23:00.869Z,4.85
2022-09-15T08:25:27.772Z,4.82
2022-09-15T08:27:56.445Z,6.13
2022-09-15T08:30:26.860Z,5.60
2022-09-15T08:32:54.976Z,4.85
2022-09-15T08:35:22.068Z,5.10
2022-09-15T08:37:49.138Z,5.28
2022-09-15T08:40:20.000Z,4.70
2022-09-15T08:42:50.862Z,5.68
2022-09-15T08:45:24.843Z,5.88
2022-09-15T08:47:58.860Z,6.07
2022-09-15T08:50:28.644Z,6.15
2022-09-15T08:53:12.152Z,6.22
2022-09-15T08:55:53.275Z,5.50
2022-09-15T08:58:32.122Z,6.55
2022-09-15T09:01:11.128Z,5.82
2022-09-15T09:06:17.319Z,6.65
2022-09-15T09:09:00.833Z,6.43
2022-09-15T09:11:51.059Z,6.40
2022-09-15T09:14:37.834Z,6.65
2022-09-15T09:17:16.813Z,7.03
2022-09-15T09:19:58.866Z,6.82
2022-09-15T09:22:35.960Z,6.32
2022-09-15T09:25:21.287Z,5.90
2022-09-15T09:27:52.986Z,7.55
2022-09-15T09:30:23.344Z,6.50
2022-09-15T09:32:56.312Z,7.57
2022-09-15T09:35:37.819Z,6.38
2022-09-15T09:38:05.098Z,6.22
2022-09-15T09:40:33.862Z,5.75
2022-09-15T09:43:01.290Z,6.07
2022-09-15T09:45:28.332Z,5.63
2022-09-15T09:48:02.544Z,5.93
2022-09-15T09:50:38.966Z,5.55
2022-09-15T09:53:34.252Z,5.75
2022-09-15T09:56:16.621Z,6.40
2022-09-15T09:58:44.641Z,6.00
2022-09-15T10:01:23.471Z,6.25
2022-09-15T10:04:11.977Z,6.25
2022-09-15T10:06:40.257Z,7.13
2022-09-15T10:09:17.234Z,7.07
2022-09-15T10:12:00.581Z,7.15
2022-09-15T10:14:37.800Z,6.70
2022-09-15T10:17:11.116Z,6.03
2022-09-15T10:19:44.007Z,6.20
2022-09-15T10:22:23.945Z,5.65
2022-09-15T10:24:51.128Z,6.43
2022-09-15T10:27:27.340Z,5.93
2022-09-15T10:30:00.006Z,5.93
2022-09-15T10:32:28.476Z,6.15
2022-09-15T10:35:13.352Z,6.28
2022-09-15T10:37:49.311Z,7.70
2022-09-15T10:40:33.097Z,5.55
2022-09-15T10:43:09.000Z,6.38
2022-09-15T10:45:45.242Z,6.28
2022-09-15T10:48:30.568Z,6.30
2022-09-15T10:51:09.921Z,5.43
2022-09-15T10:53:46.388Z,5.05
2022-09-15T10:56:34.150Z,5.32
2022-09-15T10:59:22.114Z,5.00
2022-09-15T11:01:59.248Z,5.53
2022-09-15T11:05:22.619Z,5.07
2022-09-15T11:07:55.570Z,6.10
2022-09-15T11:10:34.274Z,5.22
2022-09-15T11:13:17.321Z,5.05
2022-09-15T11:15:50.035Z,4.82
2022-09-15T11:19:05.392Z,5.10
2022-09-15T11:21:38.350Z,5.30
2022-09-15T11:24:26.464Z,4.28
2022-09-15T11:27:03.681Z,5.00
2022-09-15T11:29:48.980Z,4.68
2022-09-15T11:32:21.312Z,5.65
2022-09-15T11:35:02.812Z,5.18
2022-09-15T11:37:42.516Z,6.07
2022-09-15T11:40:24.077Z,5.53
2022-09-15T11:43:29.795Z,5.47
2022-09-15T11:45:59.579Z,4.95
2022-09-15T11:51:21.759Z,4.78
2022-09-15T11:54:11.447Z,3.80
2022-09-15T11:59:27.144Z,4.25
2022-09-15T12:02:16.034Z,5.50
2022-09-15T12:05:06.602Z,4.72
2022-09-15T12:07:41.080Z,5.38
2022-09-15T12:10:19.283Z,4.97
2022-09-15T12:12:47.273Z,7.57
2022-09-15T12:15:17.668Z,5.05
2022-09-15T12:18:27.246Z,5.32
2022-09-15T12:21:01.232Z,5.00
2022-09-15T12:23:41.213Z,5.60
2022-09-15T12:26:16.390Z,5.75
2022-09-15T12:28:57.903Z,6.00
2022-09-15T12:31:37.928Z,4.43
2022-09-15T12:34:04.937Z,6.40
2022-09-15T12:36:47.121Z,5.93
2022-09-15T12:39:36.404Z,4.85
2022-09-15T12:42:03.304Z,5.25
2022-09-15T12:44:53.698Z,7.05
2022-09-15T12:47:33.645Z,4.72
2022-09-15T12:50:20.489Z,5.53
2022-09-15T12:52:53.669Z,4.70
2022-09-15T12:55:21.025Z,5.78
2022-09-15T12:57:54.697Z,5.28
2022-09-15T13:00:23.679Z,4.82
2022-09-15T13:02:51.624Z,4.28
2022-09-15T13:05:43.145Z,6.55
2022-09-15T13:08:33.564Z,4.15
2022-09-15T13:11:15.989Z,3.80
2022-09-15T13:14:01.852Z,4.35
2022-09-15T13:16:33.576Z,5.10
2022-09-15T13:19:13.986Z,5.00
2022-09-15T13:21:46.073Z,4.90
2022-09-15T13:24:20.542Z,4.47
2022-09-15T13:26:52.176Z,5.30
2022-09-15T13:29:21.251Z,5.30
2022-09-15T13:31:55.784Z,5.38
2022-09-15T13:35:09.132Z,5.57
2022-09-15T13:38:12.183Z,6.35
2022-09-15T13:41:03.089Z,5.43
2022-09-15T13:43:42.579Z,5.38
2022-09-15T13:46:38.721Z,5.03
2022-09-15T13:49:43.333Z,5.28
2022-09-15T13:52:25.359Z,5.78
2022-09-15T13:55:33.908Z,5.68
2022-09-15T14:01:03.048Z,6.50
2022-09-15T14:03:37.100Z,6.30
2022-09-15T14:06:33.843Z,6.03
2022-09-15T14:09:12.856Z,6.32
2022-09-15T14:11:43.764Z,6.28
2022-09-15T14:14:35.701Z,6.68
2022-09-15T14:17:03.157Z,5.95
2022-09-15T14:19:34.977Z,5.35
2022-09-15T14:22:24.949Z,6.68
2022-09-15T14:24:53.082Z,5.60
2022-09-15T14:27:24.637Z,4.60
2022-09-15T14:29:58.007Z,5.18
2022-09-15T14:32:28.161Z,5.75
2022-09-15T14:34:59.290Z,5.15
2022-09-15T14:37:34.972Z,4.65
2022-09-15T14:40:23.656Z,4.45
2022-09-15T14:42:51.548Z,4.82
2022-09-15T14:48:16.878Z,4.82
2022-09-15T14:50:46.529Z,5.20
2022-09-15T14:53:18.695Z,6.47
2022-09-15T14:56:09.005Z,4.97
2022-09-15T14:58:42.954Z,5.55
2022-09-15T15:01:10.047Z,6.65
2022-09-15T15:03:46.590Z,5.47
2022-09-15T15:06:37.490Z,5.30
2022-09-15T15:09:12.608Z,6.28
2022-09-15T15:11:41.945Z,5.63
2022-09-15T15:14:11.871Z,6.47
2022-09-15T15:16:50.607Z,5.25
2022-09-15T15:19:31.756Z,4.78
2022-09-15T15:22:13.859Z,5.70
2022-09-15T15:24:46.256Z,5.28
2022-09-15T15:27:35.126Z,6.30
2022-09-15T15:30:30.915Z,8.23
2022-09-15T15:33:19.302Z,6.72
2022-09-15T15:35:47.739Z,6.10
2022-09-15T15:38:17.280Z,6.40
2022-09-15T15:40:46.020Z,5.47
2022-09-15T15:43:22.317Z,6.10
2022-09-15T15:46:02.322Z,6.10
2022-09-15T15:48:37.895Z,5.75
2022-09-15T15:51:07.122Z,5.18
2022-09-15T15:53:34.580Z,5.83
2022-09-15T15:56:02.849Z,5.47
2022-09-15T15:58:29.802Z,5.10
2022-09-15T16:00:57.269Z,5.57
2022-09-15T16:03:25.795Z,5.68
2022-09-15T16:05:57.077Z,5.80
2022-09-15T16:08:32.030Z,6.78
2022-09-15T16:11:01.787Z,5.93
2022-09-15T16:13:29.063Z,7.20
2022-09-15T16:15:58.055Z,5.82
2022-09-15T16:18:25.214Z,7.70
2022-09-15T16:20:52.714Z,7.50
2022-09-15T16:23:22.922Z,8.13
2022-09-15T16:25:55.710Z,6.80
2022-09-15T16:28:22.796Z,8.48
2022-09-15T16:30:49.970Z,7.47
2022-09-15T16:33:18.869Z,7.60
2022-09-15T16:36:08.850Z,7.70
2022-09-15T16:38:36.952Z,8.10
2022-09-15T16:41:10.589Z,6.80
2022-09-15T16:43:37.581Z,6.63
2022-09-15T16:46:06.492Z,7.30
2022-09-15T16:48:34.366Z,6.82
2022-09-15T16:51:20.957Z,7.63
2022-09-15T16:53:49.005Z,7.70
2022-09-15T16:56:16.255Z,7.10
2022-09-15T16:58:43.432Z,7.70
2022-09-15T17:01:18.438Z,8.00
2022-09-15T17:03:45.954Z,8.73
2022-09-15T17:06:14.969Z,8.50
2022-09-15T17:08:42.232Z,8.55
2022-09-15T17:11:20.236Z,8.80
2022-09-15T17:13:47.282Z,7.57
2022-09-15T17:16:17.421Z,7.50
2022-09-15T17:18:44.783Z,7.32
2022-09-15T17:21:13.360Z,9.35
2022-09-15T17:23:48.343Z,6.97
2022-09-15T17:26:21.259Z,6.82
2022-09-15T17:28:48.951Z,8.18
2022-09-15T17:31:19.558Z,7.80
2022-09-15T17:33:47.691Z,8.05
2022-09-15T17:36:15.127Z,7.75
2022-09-15T17:38:43.162Z,6.88
2022-09-15T17:41:20.829Z,7.10
2022-09-15T17:43:48.112Z,6.20
2022-09-15T17:46:15.560Z,6.57
2022-09-15T17:48:42.702Z,6.80
2022-09-15T17:51:15.434Z,7.00
2022-09-15T17:53:42.872Z,7.40
2022-09-15T17:56:09.827Z,7.40
2022-09-15T17:58:36.851Z,10.52
2022-09-15T18:01:04.182Z,5.18
2022-09-15T18:03:35.110Z,4.88
2022-09-15T18:06:08.052Z,4.05
2022-09-15T18:08:39.088Z,4.05
2022-09-15T18:11:06.942Z,4.75
2022-09-15T18:13:34.398Z,4.28
2022-09-15T18:16:12.579Z,4.28
2022-09-15T18:18:41.075Z,4.20
2022-09-15T18:21:13.187Z,4.20
2022-09-15T18:23:42.513Z,4.13
2022-09-15T18:26:09.555Z,6.88
2022-09-15T18:28:36.536Z,5.88
2022-09-15T18:31:04.016Z,5.57
2022-09-15T18:33:30.956Z,8.98
2022-09-15T18:36:01.595Z,9.35
2022-09-15T18:38:28.674Z,7.70
2022-09-15T18:40:57.101Z,7.60
2022-09-15T18:43:26.517Z,6.68
2022-09-15T18:45:58.690Z,6.18
2022-09-15T18:48:25.957Z,5.78
2022-09-15T18:50:53.589Z,6.72
2022-09-15T18:53:20.601Z,5.45
2022-09-15T18:55:47.735Z,5.95
2022-09-15T18:58:14.783Z,5.47
2022-09-15T19:00:42.064Z,4.70
2022-09-15T19:03:14.351Z,4.95
2022-09-15T19:05:41.669Z,5.20
2022-09-15T19:08:09.388Z,5.50
2022-09-15T19:10:39.826Z,4.57
2022-09-15T19:13:11.557Z,4.63
2022-09-15T19:15:43.624Z,5.07
2022-09-15T19:18:10.641Z,5.15
2022-09-15T19:20:37.671Z,4.60
2022-09-15T19:23:04.943Z,4.93
2022-09-15T19:25:32.436Z,4.47
2022-09-15T19:27:59.517Z,6.20
2022-09-15T19:30:26.515Z,4.90
2022-09-15T19:32:53.893Z,5.72
2022-09-15T19:35:21.437Z,5.32
2022-09-15T19:37:48.809Z,7.18
2022-09-15T19:40:16.349Z,6.85
2022-09-15T19:42:44.229Z,6.00
2022-09-15T19:45:12.793Z,6.57
2022-09-15T19:47:40.400Z,6.63
2022-09-15T19:50:08.910Z,6.25
2022-09-15T19:52:36.044Z,5.75
2022-09-15T19:55:05.008Z,6.07
2022-09-15T19:57:31.967Z,5.25
2022-09-15T19:59:58.933Z,6.50
2022-09-15T20:02:26.076Z,6.07
2022-09-15T20:04:53.173Z,5.70
2022-09-15T20:07:23.218Z,5.18
2022-09-15T20:09:53.106Z,6.13
2022-09-15T20:14:48.051Z,5.13
2022-09-15T20:17:15.242Z,4.93
2022-09-15T20:19:42.424Z,5.30
2022-09-15T20:22:12.570Z,6.15
2022-09-15T20:24:40.392Z,6.18
2022-09-15T20:27:08.984Z,5.57
2022-09-15T20:29:36.125Z,5.78
2022-09-15T20:32:03.119Z,5.90
2022-09-15T20:34:30.133Z,5.43
2022-09-15T20:36:57.170Z,4.97
2022-09-15T20:39:26.652Z,4.47
2022-09-15T20:41:53.637Z,4.65
2022-09-15T20:44:21.418Z,4.35
2022-09-15T20:46:50.827Z,5.32
2022-09-15T20:49:20.037Z,4.40
2022-09-15T20:51:47.180Z,4.50
2022-09-15T20:54:14.333Z,5.63
2022-09-15T20:56:41.324Z,4.20
2022-09-15T20:59:10.727Z,5.30
2022-09-15T21:01:42.106Z,5.18
2022-09-15T21:04:10.310Z,4.57
2022-09-15T21:06:37.504Z,4.40
2022-09-15T21:09:05.808Z,4.90
2022-09-15T21:11:33.161Z,4.13
2022-09-15T21:14:02.301Z,4.13
2022-09-15T21:16:30.068Z,4.80
2022-09-15T21:18:58.667Z,4.80
2022-09-15T21:21:30.945Z,4.80
2022-09-15T21:24:14.902Z,4.75
2022-09-15T21:27:01.047Z,4.57
2022-09-15T21:29:29.658Z,5.03
2022-09-15T21:31:58.148Z,4.25
2022-09-15T21:34:26.724Z,3.90
2022-09-15T21:36:54.259Z,9.82
2022-09-15T21:39:21.839Z,5.15
2022-09-15T21:41:50.054Z,4.68
2022-09-15T21:44:17.662Z,4.28
2022-09-15T21:46:47.190Z,5.53
2022-09-15T21:49:14.985Z,4.78
2022-09-15T21:51:42.198Z,4.57
2022-09-15T21:54:10.315Z,3.67
2022-09-15T21:56:37.861Z,3.72
2022-09-15T21:59:05.537Z,4.13
2022-09-15T22:01:33.599Z,4.57
2022-09-15T22:04:03.510Z,3.60
2022-09-15T22:06:33.720Z,3.70
2022-09-15T22:09:03.125Z,4.50
2022-09-15T22:11:30.481Z,4.40
2022-09-15T22:13:58.246Z,4.20
2022-09-15T22:16:26.372Z,3.97
2022-09-15T22:18:54.018Z,4.28
2022-09-15T22:21:26.354Z,3.78
2022-09-15T22:23:57.934Z,4.68
2022-09-15T22:26:28.292Z,4.40
2022-09-15T22:28:57.001Z,5.03
2022-09-15T22:31:25.380Z,3.80
2022-09-15T22:33:53.538Z,5.65
2022-09-15T22:36:29.198Z,5.03
2022-09-15T22:39:05.462Z,6.00
2022-09-15T22:41:36.435Z,3.90
2022-09-15T22:44:05.523Z,3.80
2022-09-15T22:46:34.111Z,4.50
2022-09-15T22:49:01.561Z,5.32
2022-09-15T22:51:29.149Z,4.13
2022-09-15T22:53:57.464Z,4.20
2022-09-15T22:56:26.475Z,3.78
2022-09-15T22:58:56.019Z,3.80
2022-09-15T23:01:31.331Z,6.68
2022-09-15T23:04:02.164Z,3.97
2022-09-15T23:06:31.875Z,7.47
2022-09-15T23:09:01.519Z,4.55
2022-09-15T23:13:56.908Z,4.60
2022-09-15T23:16:25.083Z,4.20
2022-09-15T23:18:53.328Z,4.38
2022-09-15T23:21:20.938Z,4.30
2022-09-15T23:23:49.068Z,4.07
2022-09-15T23:26:18.645Z,3.85
2022-09-15T23:28:45.595Z,4.35
2022-09-15T23:31:13.552Z,3.97
2022-09-15T23:33:40.727Z,4.47
2022-09-15T23:36:10.818Z,3.88
2022-09-15T23:38:40.250Z,4.13
2022-09-15T23:41:08.134Z,4.57
2022-09-15T23:43:35.561Z,3.90
2022-09-15T23:46:02.891Z,5.50
2022-09-15T23:48:31.786Z,4.72
2022-09-15T23:50:59.029Z,4.10
2022-09-15T23:53:26.003Z,3.92
2022-09-15T23:55:53.145Z,3.97
2022-09-15T23:58:20.154Z,4.22
